createdAt,value
2018-04-13T00:00:34.628Z,0
2018-04-13T00:01:46.246Z,0
2018-04-13T00:02:58.046Z,0
2018-04-13T00:04:09.992Z,0
2018-04-13T00:05:22.205Z,0
2018-04-13T00:06:32.641Z,0
2018-04-13T00:07:44.187Z,0
2018-04-13T00:08:54.690Z,0
2018-04-13T00:10:05.926Z,0
2018-04-13T00:11:19.475Z,0
2018-04-13T00:12:32.143Z,0
2018-04-13T00:13:44.161Z,0
2018-04-13T00:14:54.762Z,0
2018-04-13T00:16:05.965Z,0
2018-04-13T00:17:16.588Z,0
2018-04-13T00:18:27.075Z,0
2018-04-13T00:19:37.924Z,0
2018-04-13T00:20:51.120Z,0
2018-04-13T00:22:09.014Z,0
2018-04-13T00:23:19.873Z,0
2018-04-13T00:24:31.890Z,0
2018-04-13T00:25:44.292Z,0
2018-04-13T00:26:55.713Z,0
2018-04-13T00:28:07.382Z,0
2018-04-13T00:29:18.347Z,0
2018-04-13T00:30:29.722Z,0
2018-04-13T00:31:41.665Z,0
2018-04-13T00:32:52.128Z,0
2018-04-13T00:34:03.315Z,0
2018-04-13T00:35:14.947Z,0
2018-04-13T00:36:27.165Z,0
2018-04-13T00:37:38.529Z,0
2018-04-13T00:38:53.386Z,0
2018-04-13T00:40:05.588Z,0
2018-04-13T00:41:17.307Z,0
2018-04-13T00:42:29.494Z,0
2018-04-13T00:43:40.300Z,0
2018-04-13T00:44:51.323Z,0
2018-04-13T00:46:03.288Z,0
2018-04-13T00:47:14.453Z,0
2018-04-13T00:48:24.606Z,0
2018-04-13T00:49:35.590Z,0
2018-04-13T00:50:46.181Z,0
2018-04-13T00:51:58.516Z,0
2018-04-13T00:53:10.527Z,0
2018-04-13T00:54:23.099Z,0
2018-04-13T00:55:34.127Z,0
2018-04-13T00:56:46.635Z,0
2018-04-13T00:57:57.602Z,0
2018-04-13T00:59:07.850Z,0
2018-04-13T01:00:20.123Z,0
2018-04-13T01:01:30.759Z,0
2018-04-13T01:02:41.153Z,0
2018-04-13T01:03:53.788Z,0
2018-04-13T01:05:04.577Z,0
2018-04-13T01:06:15.325Z,0
2018-04-13T01:07:26.880Z,0
2018-04-13T01:08:37.921Z,0
2018-04-13T01:09:48.918Z,0
2018-04-13T01:10:59.298Z,0
2018-04-13T01:12:10.594Z,0
2018-04-13T01:13:22.033Z,0
2018-04-13T01:14:32.179Z,0
2018-04-13T01:15:43.817Z,0
2018-04-13T01:16:54.771Z,0
2018-04-13T01:18:06.475Z,0
2018-04-13T01:19:18.284Z,0
2018-04-13T01:20:29.649Z,0
2018-04-13T01:21:40.710Z,0
2018-04-13T01:22:51.383Z,0
2018-04-13T01:24:04.038Z,0
2018-04-13T01:25:15.020Z,0
2018-04-13T01:26:24.918Z,0
2018-04-13T01:27:36.100Z,0
2018-04-13T01:28:46.535Z,0
2018-04-13T01:29:57.909Z,0
2018-04-13T01:31:10.709Z,0
2018-04-13T01:32:21.175Z,0
2018-04-13T01:33:32.156Z,0
2018-04-13T01:34:42.681Z,0
2018-04-13T01:35:57.512Z,0
2018-04-13T01:37:08.087Z,0
2018-04-13T01:38:19.956Z,0
2018-04-13T01:39:31.366Z,0
2018-04-13T01:40:42.424Z,0
2018-04-13T01:41:55.882Z,0
2018-04-13T01:43:07.410Z,0
2018-04-13T01:44:18.382Z,0
2018-04-13T01:45:29.603Z,0
2018-04-13T01:46:41.260Z,0
2018-04-13T01:47:52.944Z,0
2018-04-13T01:49:03.963Z,0
2018-04-13T01:50:16.339Z,0
2018-04-13T01:51:32.123Z,0
2018-04-13T01:52:46.214Z,0
2018-04-13T01:53:58.102Z,0
2018-04-13T01:55:08.869Z,0
2018-04-13T01:56:20.233Z,0
2018-04-13T01:57:32.238Z,0
2018-04-13T01:58:44.163Z,0
2018-04-13T01:59:56.149Z,0
2018-04-13T02:01:08.149Z,0
2018-04-13T02:02:24.979Z,0
2018-04-13T02:03:37.013Z,0
2018-04-13T02:04:48.619Z,0
2018-04-13T02:06:01.671Z,0
2018-04-13T02:07:15.559Z,0
2018-04-13T02:08:27.374Z,0
2018-04-13T02:09:54.988Z,0
2018-04-13T02:11:10.571Z,0
2018-04-13T02:12:21.795Z,0
2018-04-13T02:13:32.189Z,0
2018-04-13T02:14:43.853Z,0
2018-04-13T02:15:54.828Z,0
2018-04-13T02:17:05.791Z,0
2018-04-13T02:18:18.052Z,0
2018-04-13T02:19:29.426Z,0
2018-04-13T02:20:43.379Z,0
2018-04-13T02:21:54.175Z,0
2018-04-13T02:23:06.338Z,0
2018-04-13T02:24:18.284Z,0
2018-04-13T02:25:29.839Z,0
2018-04-13T02:26:41.329Z,0
2018-04-13T02:27:53.213Z,0
2018-04-13T02:29:04.303Z,0
2018-04-13T02:30:15.317Z,0
2018-04-13T02:31:41.501Z,0
2018-04-13T02:32:52.116Z,0
2018-04-13T02:34:03.394Z,0
2018-04-13T02:35:14.946Z,0
2018-04-13T02:36:25.391Z,0
2018-04-13T02:37:39.058Z,0
2018-04-13T02:38:49.684Z,0
2018-04-13T02:40:00.982Z,0
2018-04-13T02:41:12.182Z,0
2018-04-13T02:42:22.175Z,0
2018-04-13T02:43:32.710Z,0
2018-04-13T02:44:44.277Z,0
2018-04-13T02:45:56.130Z,0
2018-04-13T02:47:08.043Z,0
2018-04-13T02:48:19.847Z,0
2018-04-13T02:49:33.899Z,0
2018-04-13T02:50:46.209Z,0
2018-04-13T02:51:56.834Z,0
2018-04-13T02:53:07.844Z,0
2018-04-13T02:54:19.704Z,0
2018-04-13T02:55:30.711Z,0
2018-04-13T02:56:43.042Z,0
2018-04-13T02:57:53.811Z,0
2018-04-13T02:59:04.958Z,0
2018-04-13T03:00:15.366Z,0
2018-04-13T03:01:27.050Z,0
2018-04-13T03:02:37.520Z,0
2018-04-13T03:03:48.225Z,0
2018-04-13T03:04:59.258Z,0
2018-04-13T03:06:10.509Z,0
2018-04-13T03:07:24.635Z,0
2018-04-13T03:08:35.896Z,0
2018-04-13T03:09:46.525Z,0
2018-04-13T03:11:00.494Z,0
2018-04-13T03:12:12.475Z,0
2018-04-13T03:13:24.537Z,0
2018-04-13T03:14:36.924Z,0
2018-04-13T03:15:49.390Z,0
2018-04-13T03:17:01.448Z,0
2018-04-13T03:18:12.574Z,0
2018-04-13T03:19:24.166Z,0
2018-04-13T03:20:35.374Z,0
2018-04-13T03:21:46.207Z,0
2018-04-13T03:22:58.157Z,0
2018-04-13T03:24:09.769Z,0
2018-04-13T03:25:20.130Z,0
2018-04-13T03:26:32.996Z,0
2018-04-13T03:27:44.219Z,0
2018-04-13T03:28:55.715Z,0
2018-04-13T03:30:07.993Z,0
2018-04-13T03:31:19.843Z,0
2018-04-13T03:32:31.347Z,0
2018-04-13T03:33:46.193Z,0
2018-04-13T03:34:57.781Z,0
2018-04-13T03:36:09.827Z,0
2018-04-13T03:37:20.444Z,0
2018-04-13T03:38:34.669Z,0
2018-04-13T03:39:46.311Z,0
2018-04-13T03:40:59.074Z,0
2018-04-13T03:42:10.694Z,0
2018-04-13T03:43:23.512Z,0
2018-04-13T03:44:34.987Z,0
2018-04-13T03:45:45.416Z,0
2018-04-13T03:46:55.738Z,0
2018-04-13T03:48:07.417Z,0
2018-04-13T03:49:19.575Z,0
2018-04-13T03:50:30.205Z,0
2018-04-13T03:51:43.633Z,0
2018-04-13T03:52:56.844Z,0
2018-04-13T03:54:07.898Z,0
2018-04-13T03:55:28.009Z,0
2018-04-13T03:56:41.128Z,0
2018-04-13T03:57:53.404Z,0
2018-04-13T03:59:05.907Z,0
2018-04-13T04:00:17.309Z,0
2018-04-13T04:01:30.559Z,0
2018-04-13T04:02:42.205Z,0
2018-04-13T04:03:54.451Z,0
2018-04-13T04:05:05.395Z,0
2018-04-13T04:06:17.086Z,0
2018-04-13T04:07:27.387Z,0
2018-04-13T04:08:39.294Z,0
2018-04-13T04:09:52.904Z,0
2018-04-13T04:11:04.204Z,0
2018-04-13T04:12:16.144Z,0
2018-04-13T04:14:55.971Z,0
2018-04-13T04:16:09.826Z,0
2018-04-13T04:17:20.457Z,0
2018-04-13T04:18:31.678Z,5
2018-04-13T04:19:42.552Z,5
2018-04-13T04:20:53.815Z,5
2018-04-13T04:22:05.237Z,5
2018-04-13T04:23:17.286Z,5
2018-04-13T04:24:29.489Z,5
2018-04-13T04:25:42.538Z,5
2018-04-13T04:26:54.639Z,10
2018-04-13T04:28:05.590Z,10
2018-04-13T04:29:16.466Z,10
2018-04-13T04:30:29.171Z,10
2018-04-13T04:31:41.450Z,10
2018-04-13T04:32:52.861Z,15
2018-04-13T04:34:07.921Z,15
2018-04-13T04:35:20.154Z,15
2018-04-13T04:36:50.391Z,15
2018-04-13T04:38:01.020Z,15
2018-04-13T04:39:13.210Z,15
2018-04-13T04:40:25.256Z,20
2018-04-13T04:41:37.057Z,20
2018-04-13T04:42:49.660Z,20
2018-04-13T04:44:00.947Z,20
2018-04-13T04:45:13.223Z,20
2018-04-13T04:46:24.725Z,25
2018-04-13T04:47:36.982Z,25
2018-04-13T04:48:51.233Z,25
2018-04-13T04:50:02.314Z,25
2018-04-13T04:51:15.072Z,30
2018-04-13T04:52:29.702Z,30
2018-04-13T04:53:41.479Z,30
2018-04-13T04:54:53.073Z,30
2018-04-13T04:56:05.518Z,35
2018-04-13T04:57:19.692Z,35
2018-04-13T04:58:31.760Z,35
2018-04-13T04:59:42.929Z,40
2018-04-13T05:00:55.162Z,40
2018-04-13T05:02:06.065Z,45
2018-04-13T05:03:17.862Z,45
2018-04-13T05:04:29.726Z,50
2018-04-13T05:05:41.146Z,50
2018-04-13T05:06:54.767Z,55
2018-04-13T05:08:07.533Z,55
2018-04-13T05:09:19.131Z,60
2018-04-13T05:10:32.551Z,60
2018-04-13T05:11:44.062Z,60
2018-04-13T05:12:55.933Z,60
2018-04-13T05:14:06.793Z,65
2018-04-13T05:15:18.483Z,70
2018-04-13T05:16:30.309Z,70
2018-04-13T05:17:44.122Z,70
2018-04-13T05:18:55.776Z,75
2018-04-13T05:20:06.365Z,75
2018-04-13T05:21:18.417Z,75
2018-04-13T05:22:30.123Z,80
2018-04-13T05:23:43.606Z,80
2018-04-13T05:24:54.692Z,80
2018-04-13T05:26:05.171Z,85
2018-04-13T05:27:17.714Z,85
2018-04-13T05:28:29.729Z,85
2018-04-13T05:29:40.361Z,90
2018-04-13T05:30:51.389Z,90
2018-04-13T05:32:03.017Z,90
2018-04-13T05:33:20.888Z,95
2018-04-13T05:34:33.762Z,95
2018-04-13T05:35:49.165Z,95
2018-04-13T05:37:01.742Z,95
2018-04-13T05:38:14.875Z,95
2018-04-13T05:39:26.905Z,95
2018-04-13T05:40:37.363Z,95
2018-04-13T05:41:49.022Z,95
2018-04-13T05:43:01.856Z,95
2018-04-13T05:44:15.809Z,95
2018-04-13T05:45:29.316Z,100
2018-04-13T05:46:41.791Z,105
2018-04-13T05:47:55.017Z,105
2018-04-13T05:49:05.808Z,110
2018-04-13T05:50:20.688Z,110
2018-04-13T05:51:31.678Z,110
2018-04-13T05:52:42.752Z,115
2018-04-13T05:53:54.391Z,120
2018-04-13T05:55:05.838Z,125
2018-04-13T05:56:19.478Z,130
2018-04-13T05:57:31.415Z,130
2018-04-13T05:58:43.866Z,135
2018-04-13T05:59:54.954Z,140
2018-04-13T06:01:07.601Z,140
2018-04-13T06:02:18.216Z,145
2018-04-13T06:03:29.365Z,155
2018-04-13T06:04:44.266Z,155
2018-04-13T06:05:55.597Z,150
2018-04-13T06:07:06.219Z,155
2018-04-13T06:08:18.436Z,155
2018-04-13T06:09:30.114Z,160
2018-04-13T06:10:44.140Z,160
2018-04-13T06:11:56.964Z,160
2018-04-13T06:13:08.261Z,160
2018-04-13T06:14:19.902Z,165
2018-04-13T06:15:30.557Z,165
2018-04-13T06:16:43.186Z,170
2018-04-13T06:17:54.828Z,175
2018-04-13T06:19:07.665Z,175
2018-04-13T06:20:20.387Z,180
2018-04-13T06:21:32.318Z,185
2018-04-13T06:22:44.181Z,185
2018-04-13T06:23:58.277Z,190
2018-04-13T06:25:12.849Z,195
2018-04-13T06:26:24.018Z,200
2018-04-13T06:27:36.715Z,205
2018-04-13T06:28:48.331Z,210
2018-04-13T06:30:01.986Z,210
2018-04-13T06:31:13.678Z,210
2018-04-13T06:32:24.975Z,215
2018-04-13T06:33:36.601Z,215
2018-04-13T06:34:48.493Z,220
2018-04-13T06:36:00.048Z,225
2018-04-13T06:37:11.529Z,235
2018-04-13T06:38:22.210Z,230
2018-04-13T06:39:33.164Z,235
2018-04-13T06:40:44.575Z,235
2018-04-13T06:41:55.689Z,235
2018-04-13T06:43:08.276Z,235
2018-04-13T06:44:22.240Z,240
2018-04-13T06:45:34.453Z,240
2018-04-13T06:46:45.163Z,245
2018-04-13T06:47:55.984Z,245
2018-04-13T06:49:07.400Z,250
2018-04-13T06:50:19.695Z,250
2018-04-13T06:51:32.714Z,255
2018-04-13T06:52:43.886Z,255
2018-04-13T06:53:56.153Z,260
2018-04-13T06:55:06.708Z,260
2018-04-13T06:56:19.864Z,265
2018-04-13T06:57:30.891Z,265
2018-04-13T06:58:41.767Z,265
2018-04-13T06:59:52.577Z,270
2018-04-13T07:01:03.394Z,275
2018-04-13T07:02:14.972Z,285
2018-04-13T07:03:26.992Z,290
2018-04-13T07:04:39.024Z,290
2018-04-13T07:05:50.011Z,300
2018-04-13T07:07:01.910Z,305
2018-04-13T07:08:13.771Z,315
2018-04-13T07:09:24.946Z,315
2018-04-13T07:10:35.358Z,320
2018-04-13T07:11:48.382Z,325
2018-04-13T07:12:59.787Z,325
2018-04-13T07:14:13.837Z,330
2018-04-13T07:15:24.676Z,335
2018-04-13T07:16:37.087Z,335
2018-04-13T07:17:49.943Z,340
2018-04-13T07:19:15.002Z,345
2018-04-13T07:20:26.881Z,350
2018-04-13T07:21:37.671Z,355
2018-04-13T07:22:49.504Z,360
2018-04-13T07:24:15.424Z,375
2018-04-13T07:25:26.823Z,375
2018-04-13T07:26:39.279Z,375
2018-04-13T07:27:54.478Z,375
2018-04-13T07:29:06.724Z,380
2018-04-13T07:30:17.716Z,375
2018-04-13T07:31:29.376Z,380
2018-04-13T07:32:41.758Z,380
2018-04-13T07:33:53.068Z,375
2018-04-13T07:35:06.538Z,375
2018-04-13T07:36:23.643Z,380
2018-04-13T07:37:39.673Z,370
2018-04-13T07:38:52.520Z,365
2018-04-13T07:40:05.177Z,360
2018-04-13T07:41:17.434Z,355
2018-04-13T07:42:32.875Z,350
2018-04-13T07:43:46.064Z,340
2018-04-13T07:45:02.241Z,330
2018-04-13T07:46:13.283Z,320
2018-04-13T07:47:28.903Z,310
2018-04-13T07:48:44.024Z,305
2018-04-13T07:49:55.360Z,300
2018-04-13T07:51:10.020Z,290
2018-04-13T07:52:24.950Z,270
2018-04-13T07:53:36.134Z,250
2018-04-13T07:54:46.569Z,245
2018-04-13T07:55:59.456Z,235
2018-04-13T07:57:11.938Z,240
2018-04-13T07:58:27.387Z,250
2018-04-13T07:59:46.232Z,255
2018-04-13T08:00:57.706Z,260
2018-04-13T08:02:10.355Z,265
2018-04-13T08:03:30.848Z,275
2018-04-13T08:04:41.564Z,285
2018-04-13T08:05:54.009Z,290
2018-04-13T08:07:05.235Z,280
2018-04-13T08:08:18.731Z,270
2018-04-13T08:09:29.776Z,265
2018-04-13T08:10:40.551Z,265
2018-04-13T08:11:51.965Z,280
2018-04-13T08:13:03.309Z,310
2018-04-13T08:14:14.637Z,340
2018-04-13T08:15:26.801Z,380
2018-04-13T08:16:37.578Z,400
2018-04-13T08:17:50.760Z,385
2018-04-13T08:19:03.007Z,355
2018-04-13T08:20:13.445Z,335
2018-04-13T08:21:23.655Z,325
2018-04-13T08:22:33.817Z,315
2018-04-13T08:23:44.004Z,290
2018-04-13T08:24:54.171Z,275
2018-04-13T08:26:03.970Z,280
2018-04-13T08:27:14.115Z,300
2018-04-13T08:28:24.265Z,325
2018-04-13T08:29:34.461Z,335
2018-04-13T08:30:44.711Z,320
2018-04-13T08:31:54.879Z,285
2018-04-13T08:33:05.060Z,260
2018-04-13T08:34:15.270Z,250
2018-04-13T08:35:25.297Z,245
2018-04-13T08:36:35.535Z,230
2018-04-13T08:37:45.866Z,215
2018-04-13T08:38:56.082Z,210
2018-04-13T08:40:06.342Z,210
2018-04-13T08:41:16.527Z,215
2018-04-13T08:42:26.685Z,210
2018-04-13T08:43:37.085Z,200
2018-04-13T08:44:47.336Z,195
2018-04-13T08:45:57.545Z,200
2018-04-13T08:47:07.740Z,215
2018-04-13T08:48:17.619Z,245
2018-04-13T08:49:28.003Z,265
2018-04-13T08:50:38.350Z,265
2018-04-13T08:51:48.622Z,240
2018-04-13T08:52:58.927Z,220
2018-04-13T08:54:09.381Z,200
2018-04-13T08:55:19.587Z,190
2018-04-13T08:56:29.561Z,180
2018-04-13T08:57:39.586Z,175
2018-04-13T08:58:49.768Z,175
2018-04-13T08:59:59.932Z,170
2018-04-13T09:01:10.218Z,160
2018-04-13T09:02:20.482Z,150
2018-04-13T09:03:30.636Z,150
2018-04-13T09:04:40.941Z,155
2018-04-13T09:05:51.097Z,160
2018-04-13T09:07:01.336Z,170
2018-04-13T09:08:11.607Z,200
2018-04-13T09:09:21.808Z,235
2018-04-13T09:10:32.001Z,275
2018-04-13T09:11:42.255Z,295
2018-04-13T09:12:52.423Z,315
2018-04-13T09:14:02.690Z,335
2018-04-13T09:15:12.864Z,340
2018-04-13T09:16:23.246Z,335
2018-04-13T09:17:33.151Z,325
2018-04-13T09:18:43.307Z,310
2018-04-13T09:19:53.469Z,305
2018-04-13T09:21:03.717Z,300
2018-04-13T09:22:13.871Z,300
2018-04-13T09:23:24.025Z,310
2018-04-13T09:24:34.209Z,325
2018-04-13T09:25:44.447Z,330
2018-04-13T09:26:54.788Z,325
2018-04-13T09:28:05.182Z,310
2018-04-13T09:29:15.340Z,280
2018-04-13T09:30:25.516Z,250
2018-04-13T09:31:35.697Z,215
2018-04-13T09:32:45.833Z,215
2018-04-13T09:33:56.066Z,230
2018-04-13T09:35:06.239Z,245
2018-04-13T09:36:16.565Z,245
2018-04-13T09:37:26.766Z,250
2018-04-13T09:38:36.951Z,275
2018-04-13T09:39:46.859Z,320
2018-04-13T09:40:57.030Z,360
2018-04-13T09:42:07.164Z,395
2018-04-13T09:43:17.451Z,400
2018-04-13T09:44:27.537Z,390
2018-04-13T09:45:37.728Z,390
2018-04-13T09:46:47.891Z,385
2018-04-13T09:47:58.149Z,375
2018-04-13T09:49:08.029Z,360
2018-04-13T09:50:18.198Z,340
2018-04-13T09:51:28.380Z,320
2018-04-13T09:52:38.562Z,320
2018-04-13T09:53:48.884Z,330
2018-04-13T09:54:59.102Z,325
2018-04-13T09:56:09.316Z,315
2018-04-13T09:57:19.608Z,305
2018-04-13T09:58:29.761Z,305
2018-04-13T09:59:39.920Z,305
2018-04-13T10:00:50.137Z,290
2018-04-13T10:02:00.357Z,295
2018-04-13T10:03:10.265Z,340
2018-04-13T10:04:20.466Z,425
2018-04-13T10:05:30.666Z,490
2018-04-13T10:06:40.867Z,510
2018-04-13T10:07:50.807Z,500
2018-04-13T10:09:00.995Z,480
2018-04-13T10:10:11.157Z,470
2018-04-13T10:11:21.319Z,475
2018-04-13T10:12:31.469Z,510
2018-04-13T10:13:41.663Z,550
2018-04-13T10:14:51.945Z,555
2018-04-13T10:16:02.123Z,545
2018-04-13T10:17:12.388Z,565
2018-04-13T10:18:22.557Z,605
2018-04-13T10:19:32.806Z,710
2018-04-13T10:20:42.994Z,860
2018-04-13T10:21:53.385Z,925
2018-04-13T10:23:03.648Z,935
2018-04-13T10:24:13.815Z,1005
2018-04-13T10:25:23.989Z,1000
2018-04-13T10:26:34.176Z,980
2018-04-13T10:27:44.377Z,1150
2018-04-13T10:28:54.667Z,1165
2018-04-13T10:30:04.871Z,1020
2018-04-13T10:31:15.033Z,3105
2018-04-13T10:32:24.922Z,3250
2018-04-13T10:33:35.097Z,2660
2018-04-13T10:34:45.286Z,1050
2018-04-13T10:35:55.449Z,1040
2018-04-13T10:37:05.630Z,670
2018-04-13T10:38:15.845Z,550
2018-04-13T10:39:26.981Z,585
2018-04-13T10:40:37.203Z,510
2018-04-13T10:41:47.386Z,535
2018-04-13T10:42:57.560Z,570
2018-04-13T10:44:07.888Z,615
2018-04-13T10:45:18.117Z,1465
2018-04-13T10:46:28.294Z,770
2018-04-13T10:47:38.452Z,785
2018-04-13T10:48:48.655Z,855
2018-04-13T10:49:58.824Z,605
2018-04-13T10:51:09.135Z,530
2018-04-13T10:52:21.143Z,515
2018-04-13T10:53:32.283Z,395
2018-04-13T10:54:42.440Z,320
2018-04-13T10:55:52.585Z,230
2018-04-13T10:57:02.764Z,205
2018-04-13T10:58:13.004Z,240
2018-04-13T10:59:23.276Z,245
2018-04-13T11:00:33.495Z,200
2018-04-13T11:01:43.680Z,240
2018-04-13T11:02:53.857Z,330
2018-04-13T11:04:04.122Z,420
2018-04-13T11:05:14.085Z,340
2018-04-13T11:06:23.854Z,290
2018-04-13T11:07:33.993Z,255
2018-04-13T11:08:44.163Z,300
2018-04-13T11:09:54.327Z,375
2018-04-13T11:11:04.548Z,390
2018-04-13T11:12:14.743Z,425
2018-04-13T11:13:24.948Z,420
2018-04-13T11:14:35.199Z,440
2018-04-13T11:15:45.383Z,520
2018-04-13T11:16:55.800Z,690
2018-04-13T11:18:06.029Z,630
2018-04-13T11:19:16.216Z,600
2018-04-13T11:20:26.349Z,380
2018-04-13T11:21:36.532Z,300
2018-04-13T11:22:46.747Z,235
2018-04-13T11:23:56.941Z,225
2018-04-13T11:25:07.177Z,275
2018-04-13T11:26:17.374Z,295
2018-04-13T11:27:27.570Z,315
2018-04-13T11:28:37.783Z,410
2018-04-13T11:29:47.714Z,370
2018-04-13T11:30:57.877Z,320
2018-04-13T11:32:07.782Z,270
2018-04-13T11:33:18.007Z,250
2018-04-13T11:34:28.235Z,240
2018-04-13T11:35:38.530Z,230
2018-04-13T11:36:48.712Z,205
2018-04-13T11:37:58.898Z,165
2018-04-13T11:39:08.809Z,120
2018-04-13T11:40:19.055Z,95
2018-04-13T11:41:29.305Z,80
2018-04-13T11:42:39.559Z,75
2018-04-13T11:43:49.754Z,70
2018-04-13T11:44:59.943Z,75
2018-04-13T11:46:10.198Z,80
2018-04-13T11:47:20.367Z,90
2018-04-13T11:48:30.557Z,100
2018-04-13T11:49:40.811Z,125
2018-04-13T11:50:51.076Z,160
2018-04-13T11:52:01.405Z,230
2018-04-13T11:53:11.580Z,300
2018-04-13T11:54:21.727Z,415
2018-04-13T11:55:31.918Z,565
2018-04-13T11:56:42.095Z,885
2018-04-13T11:57:52.301Z,935
2018-04-13T11:59:02.531Z,870
2018-04-13T12:00:12.782Z,860
2018-04-13T12:01:23.058Z,880
2018-04-13T12:02:33.423Z,925
2018-04-13T12:03:43.612Z,1795
2018-04-13T12:04:53.770Z,3030
2018-04-13T12:06:04.025Z,2960
2018-04-13T12:07:14.241Z,2840
2018-04-13T12:08:24.195Z,2805
2018-04-13T12:09:34.617Z,2035
2018-04-13T12:10:44.813Z,1015
2018-04-13T12:11:54.974Z,860
2018-04-13T12:13:05.364Z,625
2018-04-13T12:14:15.569Z,540
2018-04-13T12:15:27.708Z,545
2018-04-13T12:16:37.918Z,625
2018-04-13T12:17:48.156Z,735
2018-04-13T12:18:58.334Z,2410
2018-04-13T12:20:08.511Z,980
2018-04-13T12:21:18.698Z,2180
2018-04-13T12:22:28.909Z,2380
2018-04-13T12:23:39.255Z,1185
2018-04-13T12:24:52.068Z,1345
2018-04-13T12:26:02.254Z,810
2018-04-13T12:27:12.423Z,795
2018-04-13T12:28:28.415Z,1360
2018-04-13T12:30:54.838Z,365
2018-04-13T12:32:05.052Z,340
2018-04-13T12:33:14.979Z,300
2018-04-13T12:34:25.267Z,260
2018-04-13T12:35:35.507Z,210
2018-04-13T12:36:45.714Z,170
2018-04-13T12:37:55.939Z,145
2018-04-13T12:39:06.148Z,125
2018-04-13T12:40:16.414Z,115
2018-04-13T12:41:26.606Z,105
2018-04-13T12:42:36.883Z,100
2018-04-13T12:43:47.073Z,100
2018-04-13T12:44:57.244Z,100
2018-04-13T12:46:07.425Z,105
2018-04-13T12:47:17.626Z,110
2018-04-13T12:48:27.967Z,110
2018-04-13T12:49:38.267Z,100
2018-04-13T12:50:48.183Z,100
2018-04-13T12:51:58.373Z,90
2018-04-13T12:53:08.641Z,85
2018-04-13T12:54:19.534Z,80
2018-04-13T12:55:29.603Z,85
2018-04-13T12:56:40.136Z,95
2018-04-13T12:57:50.331Z,115
2018-04-13T12:59:00.555Z,140
2018-04-13T13:00:10.813Z,155
2018-04-13T13:01:20.992Z,185
2018-04-13T13:02:31.242Z,205
2018-04-13T13:03:41.131Z,225
2018-04-13T13:04:51.318Z,225
2018-04-13T13:06:01.569Z,195
2018-04-13T13:07:11.782Z,175
2018-04-13T13:08:22.006Z,150
2018-04-13T13:09:32.203Z,115
2018-04-13T13:10:42.390Z,90
2018-04-13T13:11:52.614Z,75
2018-04-13T13:13:02.810Z,80
2018-04-13T13:14:12.974Z,85
2018-04-13T13:15:23.119Z,90
2018-04-13T13:16:33.021Z,95
2018-04-13T13:17:43.186Z,140
2018-04-13T13:18:53.379Z,205
2018-04-13T13:20:03.610Z,300
2018-04-13T13:21:13.760Z,605
2018-04-13T13:22:23.948Z,260
2018-04-13T13:23:34.222Z,265
2018-04-13T13:24:44.401Z,260
2018-04-13T13:25:54.401Z,245
2018-04-13T13:27:04.597Z,215
2018-04-13T13:28:14.795Z,190
2018-04-13T13:29:24.985Z,175
2018-04-13T13:30:35.181Z,200
2018-04-13T13:31:45.504Z,275
2018-04-13T13:32:55.670Z,405
2018-04-13T13:34:05.835Z,475
2018-04-13T13:35:16.010Z,695
2018-04-13T13:36:25.924Z,1060
2018-04-13T13:37:36.400Z,1875
2018-04-13T13:38:46.584Z,1930
2018-04-13T13:39:56.829Z,2055
2018-04-13T13:41:06.999Z,2145
2018-04-13T13:42:17.239Z,2155
2018-04-13T13:43:27.432Z,2015
2018-04-13T13:44:37.674Z,1940
2018-04-13T13:45:47.916Z,1840
2018-04-13T13:46:58.105Z,1825
2018-04-13T13:48:08.307Z,1740
2018-04-13T13:49:18.679Z,1855
2018-04-13T13:50:31.798Z,1860
2018-04-13T13:51:41.660Z,1865
2018-04-13T13:52:51.588Z,1555
2018-04-13T13:54:01.820Z,1855
2018-04-13T13:55:12.048Z,1260
2018-04-13T13:56:24.874Z,655
2018-04-13T13:57:35.062Z,560
2018-04-13T14:00:01.502Z,470
2018-04-13T14:01:11.717Z,410
2018-04-13T14:02:21.908Z,340
2018-04-13T14:03:32.132Z,320
2018-04-13T14:04:42.340Z,340
2018-04-13T14:05:52.502Z,330
2018-04-13T14:07:02.707Z,395
2018-04-13T14:08:12.850Z,465
2018-04-13T14:09:23.034Z,595
2018-04-13T14:10:33.249Z,1105
2018-04-13T14:11:43.439Z,650
2018-04-13T14:12:53.747Z,720
2018-04-13T14:14:04.955Z,670
2018-04-13T14:15:15.185Z,535
2018-04-13T14:16:25.403Z,430
2018-04-13T14:17:35.576Z,365
2018-04-13T14:18:45.749Z,320
2018-04-13T14:19:56.018Z,265
2018-04-13T14:21:06.279Z,215
2018-04-13T14:22:16.616Z,175
2018-04-13T14:23:26.829Z,140
2018-04-13T14:24:37.002Z,100
2018-04-13T14:25:47.253Z,80
2018-04-13T14:26:58.337Z,65
2018-04-13T14:28:08.769Z,55
2018-04-13T14:29:18.944Z,50
2018-04-13T14:30:29.499Z,55
2018-04-13T14:31:39.914Z,65
2018-04-13T14:32:50.087Z,70
2018-04-13T14:34:00.297Z,75
2018-04-13T14:35:10.526Z,75
2018-04-13T14:36:20.697Z,75
2018-04-13T14:37:30.854Z,85
2018-04-13T14:38:41.090Z,90
2018-04-13T14:39:51.284Z,95
2018-04-13T14:41:01.589Z,100
2018-04-13T14:42:11.812Z,100
2018-04-13T14:43:22.146Z,100
2018-04-13T14:44:32.330Z,95
2018-04-13T14:45:42.523Z,95
2018-04-13T14:46:52.743Z,95
2018-04-13T14:48:02.966Z,70
2018-04-13T14:49:13.143Z,55
2018-04-13T14:50:23.398Z,50
2018-04-13T14:51:33.627Z,40
2018-04-13T14:52:43.890Z,35
2018-04-13T14:53:54.126Z,45
2018-04-13T14:55:04.110Z,55
2018-04-13T14:56:14.094Z,60
2018-04-13T14:57:24.314Z,85
2018-04-13T14:58:34.515Z,115
2018-04-13T14:59:44.758Z,135
2018-04-13T15:00:55.049Z,155
2018-04-13T15:02:05.260Z,170
2018-04-13T15:03:15.466Z,165
2018-04-13T15:04:25.662Z,140
2018-04-13T15:05:35.908Z,95
2018-04-13T15:06:45.880Z,95
2018-04-13T15:07:56.047Z,155
2018-04-13T15:09:06.275Z,205
2018-04-13T15:10:16.656Z,290
2018-04-13T15:11:26.935Z,700
2018-04-13T15:12:37.161Z,540
2018-04-13T15:13:47.590Z,125
2018-04-13T15:14:57.823Z,95
2018-04-13T15:16:08.026Z,120
2018-04-13T15:17:18.508Z,155
2018-04-13T15:18:28.704Z,170
2018-04-13T15:19:38.898Z,165
2018-04-13T15:20:49.109Z,145
2018-04-13T15:21:59.292Z,130
2018-04-13T15:23:09.501Z,125
2018-04-13T15:24:19.830Z,130
2018-04-13T15:25:30.036Z,120
2018-04-13T15:26:40.274Z,115
2018-04-13T15:27:50.467Z,110
2018-04-13T15:29:00.693Z,100
2018-04-13T15:30:10.913Z,95
2018-04-13T15:31:21.129Z,90
2018-04-13T15:32:31.347Z,90
2018-04-13T15:33:41.530Z,90
2018-04-13T15:34:51.757Z,90
2018-04-13T15:36:02.026Z,90
2018-04-13T15:37:12.378Z,95
2018-04-13T15:38:22.596Z,95
2018-04-13T15:39:32.784Z,95
2018-04-13T15:40:42.959Z,95
2018-04-13T15:41:53.150Z,100
2018-04-13T15:43:03.331Z,105
2018-04-13T15:44:13.529Z,105
2018-04-13T15:45:23.454Z,110
2018-04-13T15:46:33.640Z,115
2018-04-13T15:47:43.845Z,110
2018-04-13T15:48:54.085Z,100
2018-04-13T15:50:04.306Z,95
2018-04-13T15:51:14.537Z,90
2018-04-13T15:52:24.769Z,85
2018-04-13T15:53:34.973Z,85
2018-04-13T15:54:45.163Z,85
2018-04-13T15:55:55.028Z,90
2018-04-13T15:57:05.287Z,100
2018-04-13T15:58:15.617Z,100
2018-04-13T15:59:25.816Z,105
2018-04-13T16:00:36.019Z,115
2018-04-13T16:01:46.317Z,120
2018-04-13T16:02:56.560Z,125
2018-04-13T16:04:06.808Z,130
2018-04-13T16:05:17.006Z,140
2018-04-13T16:06:27.303Z,155
2018-04-13T16:07:37.498Z,165
2018-04-13T16:08:47.706Z,175
2018-04-13T16:09:57.994Z,190
2018-04-13T16:11:08.237Z,200
2018-04-13T16:12:18.574Z,210
2018-04-13T16:13:28.909Z,215
2018-04-13T16:14:39.286Z,215
2018-04-13T16:15:49.664Z,210
2018-04-13T16:17:00.122Z,195
2018-04-13T16:18:15.461Z,180
2018-04-13T16:19:26.057Z,160
2018-04-13T16:20:36.394Z,140
2018-04-13T16:21:46.724Z,115
2018-04-13T16:22:57.141Z,105
2018-04-13T16:24:07.445Z,100
2018-04-13T16:25:17.807Z,100
2018-04-13T16:26:28.129Z,100
2018-04-13T16:27:38.384Z,100
2018-04-13T16:28:49.623Z,105
2018-04-13T16:30:00.411Z,110
2018-04-13T16:31:10.692Z,110
2018-04-13T16:32:21.042Z,115
2018-04-13T16:33:31.152Z,115
2018-04-13T16:34:42.072Z,120
2018-04-13T16:35:52.255Z,125
2018-04-13T16:37:02.483Z,130
2018-04-13T16:38:12.591Z,125
2018-04-13T16:39:22.880Z,120
2018-04-13T16:40:33.114Z,115
2018-04-13T16:41:43.323Z,115
2018-04-13T16:42:53.540Z,110
2018-04-13T16:44:03.762Z,105
2018-04-13T16:45:14.004Z,105
2018-04-13T16:46:24.263Z,105